OEFVS EDDK-LFPB
Flight info
| Callsign | OEFVS |
|---|---|
| Flight time | 1h 0m |
| Altitude | 24000 |
| Route | NVO3M NVO Y868 SOGRI DCT DELOM/N0360F230 DCT MOPIL |
| Aircraft | P180/L-SBDFGM3RWXY/LB1 |
Departure
| Time | 2026-05-05 16:45 |
|---|---|
| Airport | Cologne Bonn Airport (EDDK) |
Arrival
| Time | 2026-05-05 17:46 |
|---|---|
| Airport | Paris-Le Bourget International Airport (LFPB) |
| Time | Latitude | Longitude | Altitude | Speed | Heading |
|---|---|---|---|---|---|
| 2026-05-05 16:34 | 50.87313 | 7.12220 | 223 ft | 0 kts | 156° |
| 2026-05-05 16:43 | 50.87309 | 7.12223 | 224 ft | 2 kts | 154° |
| 2026-05-05 16:43 | 50.87276 | 7.12233 | 224 ft | 7 kts | 200° |
| 2026-05-05 16:43 | 50.87223 | 7.12205 | 226 ft | 8 kts | 178° |
| 2026-05-05 16:44 | 50.87173 | 7.12246 | 229 ft | 9 kts | 185° |
| 2026-05-05 16:44 | 50.87115 | 7.12255 | 229 ft | 10 kts | 225° |
| 2026-05-05 16:44 | 50.87058 | 7.12152 | 229 ft | 14 kts | 198° |
| 2026-05-05 16:44 | 50.86963 | 7.12263 | 228 ft | 29 kts | 137° |
| 2026-05-05 16:45 | 50.86626 | 7.12751 | 228 ft | 104 kts | 137° |
| 2026-05-05 16:45 | 50.85997 | 7.13655 | 500 ft | 129 kts | 138° |
| 2026-05-05 16:45 | 50.85273 | 7.14521 | 932 ft | 134 kts | 163° |
| 2026-05-05 16:45 | 50.84415 | 7.14081 | 1283 ft | 146 kts | 236° |
| 2026-05-05 16:46 | 50.84327 | 7.12526 | 1728 ft | 148 kts | 289° |
| 2026-05-05 16:46 | 50.84598 | 7.10928 | 2218 ft | 151 kts | 285° |
| 2026-05-05 16:46 | 50.84849 | 7.09310 | 2737 ft | 153 kts | 287° |
| 2026-05-05 16:46 | 50.85127 | 7.07677 | 3252 ft | 158 kts | 287° |
| 2026-05-05 16:47 | 50.85456 | 7.05896 | 3868 ft | 177 kts | 286° |
| 2026-05-05 16:47 | 50.85821 | 7.03982 | 4620 ft | 186 kts | 287° |
| 2026-05-05 16:47 | 50.86205 | 7.01985 | 5354 ft | 191 kts | 285° |
| 2026-05-05 16:47 | 50.86443 | 6.99927 | 6170 ft | 190 kts | 271° |
| 2026-05-05 16:48 | 50.86339 | 6.97838 | 6861 ft | 192 kts | 258° |
| 2026-05-05 16:48 | 50.86076 | 6.95773 | 7597 ft | 192 kts | 256° |
| 2026-05-05 16:48 | 50.85817 | 6.93693 | 8282 ft | 194 kts | 257° |
| 2026-05-05 16:48 | 50.85566 | 6.91569 | 8918 ft | 199 kts | 258° |
| 2026-05-05 16:49 | 50.85315 | 6.89404 | 9556 ft | 202 kts | 258° |
| 2026-05-05 16:49 | 50.85065 | 6.87230 | 10154 ft | 203 kts | 256° |
| 2026-05-05 16:49 | 50.84801 | 6.85020 | 10702 ft | 206 kts | 257° |
| 2026-05-05 16:49 | 50.84536 | 6.82771 | 11232 ft | 209 kts | 257° |
| 2026-05-05 16:50 | 50.84267 | 6.80496 | 11769 ft | 211 kts | 257° |
| 2026-05-05 16:50 | 50.83997 | 6.78201 | 12301 ft | 213 kts | 257° |
| 2026-05-05 16:50 | 50.83722 | 6.75877 | 12808 ft | 216 kts | 256° |
| 2026-05-05 16:50 | 50.83444 | 6.73536 | 13303 ft | 219 kts | 257° |
| 2026-05-05 16:51 | 50.83163 | 6.71161 | 13867 ft | 220 kts | 256° |
| 2026-05-05 16:51 | 50.82877 | 6.68782 | 14366 ft | 222 kts | 256° |
| 2026-05-05 16:51 | 50.82589 | 6.66364 | 14870 ft | 223 kts | 256° |
| 2026-05-05 16:51 | 50.82301 | 6.63948 | 15366 ft | 225 kts | 256° |
| 2026-05-05 16:52 | 50.82010 | 6.61506 | 15859 ft | 226 kts | 256° |
| 2026-05-05 16:52 | 50.81714 | 6.59054 | 16336 ft | 228 kts | 256° |
| 2026-05-05 16:52 | 50.81418 | 6.56581 | 16831 ft | 229 kts | 256° |
| 2026-05-05 16:52 | 50.81121 | 6.54115 | 17360 ft | 229 kts | 256° |
| 2026-05-05 16:53 | 50.80822 | 6.51634 | 17806 ft | 230 kts | 256° |
| 2026-05-05 16:53 | 50.80521 | 6.49142 | 18226 ft | 231 kts | 255° |
| 2026-05-05 16:53 | 50.80217 | 6.46638 | 18581 ft | 233 kts | 255° |
| 2026-05-05 16:53 | 50.79911 | 6.44112 | 18931 ft | 235 kts | 255° |
| 2026-05-05 16:54 | 50.79602 | 6.41567 | 19286 ft | 236 kts | 255° |
| 2026-05-05 16:54 | 50.79290 | 6.39004 | 19626 ft | 238 kts | 255° |
| 2026-05-05 16:54 | 50.79105 | 6.37300 | 19846 ft | 241 kts | 261° |
| 2026-05-05 16:54 | 50.79325 | 6.34637 | 20192 ft | 248 kts | 278° |
| 2026-05-05 16:55 | 50.79651 | 6.31958 | 20548 ft | 249 kts | 275° |
| 2026-05-05 16:55 | 50.79934 | 6.29255 | 20911 ft | 250 kts | 275° |
| 2026-05-05 16:55 | 50.80231 | 6.26528 | 21283 ft | 252 kts | 276° |
| 2026-05-05 16:55 | 50.80540 | 6.23786 | 21639 ft | 254 kts | 276° |
| 2026-05-05 16:56 | 50.80848 | 6.21027 | 21992 ft | 256 kts | 276° |
| 2026-05-05 16:56 | 50.81154 | 6.18239 | 22356 ft | 258 kts | 275° |
| 2026-05-05 16:56 | 50.81463 | 6.15441 | 22709 ft | 260 kts | 276° |
| 2026-05-05 16:56 | 50.81772 | 6.12621 | 23064 ft | 261 kts | 275° |
| 2026-05-05 16:57 | 50.82085 | 6.09781 | 23436 ft | 263 kts | 275° |
| 2026-05-05 16:57 | 50.82397 | 6.06921 | 23777 ft | 263 kts | 275° |
| 2026-05-05 16:57 | 50.82710 | 6.04052 | 24016 ft | 268 kts | 275° |
| 2026-05-05 16:57 | 50.82950 | 6.01058 | 24021 ft | 279 kts | 266° |
| 2026-05-05 16:58 | 50.82876 | 5.97939 | 24027 ft | 290 kts | 263° |
| 2026-05-05 16:58 | 50.82789 | 5.94692 | 24035 ft | 300 kts | 264° |
| 2026-05-05 16:58 | 50.82733 | 5.91382 | 24035 ft | 309 kts | 265° |
| 2026-05-05 16:58 | 50.82675 | 5.87944 | 24038 ft | 316 kts | 264° |
| 2026-05-05 16:59 | 50.82591 | 5.84423 | 24036 ft | 326 kts | 264° |
| 2026-05-05 16:59 | 50.82505 | 5.80794 | 24038 ft | 333 kts | 264° |
| 2026-05-05 16:59 | 50.82428 | 5.77094 | 24037 ft | 340 kts | 265° |
| 2026-05-05 16:59 | 50.82348 | 5.73323 | 24036 ft | 345 kts | 264° |
| 2026-05-05 17:00 | 50.82257 | 5.69508 | 24033 ft | 349 kts | 264° |
| 2026-05-05 17:00 | 50.82165 | 5.65651 | 24034 ft | 353 kts | 264° |
| 2026-05-05 17:00 | 50.82079 | 5.61757 | 24036 ft | 356 kts | 265° |
| 2026-05-05 17:00 | 50.81991 | 5.57826 | 24036 ft | 359 kts | 265° |
| 2026-05-05 17:01 | 50.81901 | 5.53868 | 24034 ft | 361 kts | 265° |
| 2026-05-05 17:01 | 50.81804 | 5.49889 | 24034 ft | 362 kts | 265° |
| 2026-05-05 17:01 | 50.81708 | 5.45901 | 24034 ft | 363 kts | 265° |
| 2026-05-05 17:01 | 50.81614 | 5.41909 | 24038 ft | 364 kts | 265° |
| 2026-05-05 17:02 | 50.81516 | 5.37900 | 24039 ft | 365 kts | 265° |
| 2026-05-05 17:02 | 50.81410 | 5.33883 | 24040 ft | 366 kts | 265° |
| 2026-05-05 17:02 | 50.81311 | 5.29855 | 24040 ft | 367 kts | 265° |
| 2026-05-05 17:02 | 50.81211 | 5.25822 | 24038 ft | 368 kts | 265° |
| 2026-05-05 17:03 | 50.81103 | 5.21779 | 24043 ft | 369 kts | 265° |
| 2026-05-05 17:03 | 50.80994 | 5.17772 | 24042 ft | 369 kts | 265° |
| 2026-05-05 17:03 | 50.80886 | 5.13723 | 24042 ft | 369 kts | 265° |
| 2026-05-05 17:03 | 50.80781 | 5.09619 | 24043 ft | 368 kts | 265° |
| 2026-05-05 17:04 | 50.80555 | 5.05659 | 24041 ft | 364 kts | 255° |
| 2026-05-05 17:04 | 50.79409 | 5.02108 | 24029 ft | 358 kts | 228° |
| 2026-05-05 17:04 | 50.77484 | 4.99731 | 24031 ft | 355 kts | 210° |
| 2026-05-05 17:04 | 50.75331 | 4.97820 | 24027 ft | 355 kts | 208° |
| 2026-05-05 17:05 | 50.73204 | 4.95855 | 24024 ft | 355 kts | 211° |
| 2026-05-05 17:05 | 50.71155 | 4.93653 | 24032 ft | 355 kts | 214° |
| 2026-05-05 17:05 | 50.69252 | 4.91163 | 24024 ft | 356 kts | 220° |
| 2026-05-05 17:05 | 50.67438 | 4.88501 | 24019 ft | 356 kts | 221° |
| 2026-05-05 17:06 | 50.65650 | 4.85818 | 24019 ft | 356 kts | 222° |
| 2026-05-05 17:06 | 50.63897 | 4.83054 | 24018 ft | 356 kts | 225° |
| 2026-05-05 17:06 | 50.62262 | 4.80122 | 24028 ft | 356 kts | 227° |
| 2026-05-05 17:06 | 50.60595 | 4.77265 | 24024 ft | 355 kts | 222° |
| 2026-05-05 17:07 | 50.58733 | 4.74725 | 24016 ft | 354 kts | 218° |
| 2026-05-05 17:07 | 50.56841 | 4.72245 | 24013 ft | 354 kts | 219° |
| 2026-05-05 17:07 | 50.55090 | 4.69603 | 24011 ft | 354 kts | 224° |
| 2026-05-05 17:07 | 50.53356 | 4.66846 | 24020 ft | 354 kts | 223° |
| 2026-05-05 17:08 | 50.51547 | 4.64229 | 24029 ft | 353 kts | 220° |
| 2026-05-05 17:08 | 50.49709 | 4.61656 | 24030 ft | 355 kts | 220° |
| 2026-05-05 17:08 | 50.47916 | 4.58979 | 24030 ft | 356 kts | 222° |
| 2026-05-05 17:08 | 50.46126 | 4.56282 | 24038 ft | 357 kts | 221° |
| 2026-05-05 17:09 | 50.44306 | 4.53638 | 24037 ft | 357 kts | 220° |
| 2026-05-05 17:09 | 50.42474 | 4.50999 | 24038 ft | 357 kts | 221° |
| 2026-05-05 17:09 | 50.40660 | 4.48327 | 24032 ft | 358 kts | 221° |
| 2026-05-05 17:09 | 50.38844 | 4.45656 | 24032 ft | 359 kts | 221° |
| 2026-05-05 17:10 | 50.37012 | 4.42992 | 24038 ft | 359 kts | 220° |
| 2026-05-05 17:10 | 50.35175 | 4.40326 | 24039 ft | 360 kts | 220° |
| 2026-05-05 17:10 | 50.33338 | 4.37646 | 24031 ft | 362 kts | 221° |
| 2026-05-05 17:10 | 50.31497 | 4.34959 | 24030 ft | 363 kts | 221° |
| 2026-05-05 17:11 | 50.29667 | 4.32302 | 24028 ft | 363 kts | 221° |
| 2026-05-05 17:11 | 50.27815 | 4.29621 | 24027 ft | 364 kts | 220° |
| 2026-05-05 17:11 | 50.25953 | 4.26927 | 24025 ft | 365 kts | 221° |
| 2026-05-05 17:11 | 50.24089 | 4.24220 | 24022 ft | 366 kts | 221° |
| 2026-05-05 17:12 | 50.22220 | 4.21511 | 24016 ft | 366 kts | 221° |
| 2026-05-05 17:12 | 50.20347 | 4.18807 | 24014 ft | 367 kts | 220° |
| 2026-05-05 17:12 | 50.18472 | 4.16110 | 24013 ft | 367 kts | 220° |
| 2026-05-05 17:12 | 50.16589 | 4.13406 | 24013 ft | 368 kts | 220° |
| 2026-05-05 17:13 | 50.14442 | 4.11298 | 23995 ft | 364 kts | 199° |
| 2026-05-05 17:13 | 50.11978 | 4.10523 | 24006 ft | 361 kts | 184° |
| 2026-05-05 17:13 | 50.09475 | 4.10349 | 24006 ft | 360 kts | 181° |
| 2026-05-05 17:13 | 50.06997 | 4.10189 | 24004 ft | 360 kts | 182° |
| 2026-05-05 17:14 | 50.04461 | 4.09998 | 24001 ft | 361 kts | 182° |
| 2026-05-05 17:14 | 50.01950 | 4.09809 | 24002 ft | 361 kts | 181° |
| 2026-05-05 17:14 | 49.99445 | 4.09615 | 24007 ft | 361 kts | 182° |
| 2026-05-05 17:14 | 49.96937 | 4.09429 | 24006 ft | 362 kts | 181° |
| 2026-05-05 17:15 | 49.94453 | 4.09287 | 24010 ft | 364 kts | 182° |
| 2026-05-05 17:15 | 49.91918 | 4.09032 | 24004 ft | 365 kts | 184° |
| 2026-05-05 17:15 | 49.89371 | 4.08786 | 24002 ft | 367 kts | 182° |
| 2026-05-05 17:15 | 49.86818 | 4.08668 | 24000 ft | 366 kts | 180° |
| 2026-05-05 17:16 | 49.84276 | 4.08528 | 23994 ft | 365 kts | 182° |
| 2026-05-05 17:16 | 49.81744 | 4.08286 | 23993 ft | 363 kts | 182° |
| 2026-05-05 17:16 | 49.79225 | 4.08060 | 23990 ft | 362 kts | 182° |
| 2026-05-05 17:16 | 49.76709 | 4.07899 | 23982 ft | 362 kts | 181° |
| 2026-05-05 17:17 | 49.74137 | 4.07751 | 23205 ft | 380 kts | 182° |
| 2026-05-05 17:17 | 49.71495 | 4.07523 | 22118 ft | 378 kts | 183° |
| 2026-05-05 17:17 | 49.68893 | 4.07290 | 21075 ft | 370 kts | 182° |
| 2026-05-05 17:17 | 49.66369 | 4.07119 | 20076 ft | 357 kts | 182° |
| 2026-05-05 17:18 | 49.63947 | 4.06965 | 19108 ft | 347 kts | 182° |
| 2026-05-05 17:18 | 49.61562 | 4.06779 | 18162 ft | 340 kts | 183° |
| 2026-05-05 17:18 | 49.59218 | 4.06584 | 17104 ft | 333 kts | 183° |
| 2026-05-05 17:18 | 49.56966 | 4.06420 | 16772 ft | 312 kts | 182° |
| 2026-05-05 17:19 | 49.54830 | 4.06283 | 16493 ft | 303 kts | 182° |
| 2026-05-05 17:19 | 49.52743 | 4.06124 | 16172 ft | 297 kts | 183° |
| 2026-05-05 17:19 | 49.50691 | 4.05958 | 15856 ft | 294 kts | 183° |
| 2026-05-05 17:19 | 49.48652 | 4.05810 | 15541 ft | 293 kts | 182° |
| 2026-05-05 17:20 | 49.46623 | 4.05670 | 15223 ft | 291 kts | 182° |
| 2026-05-05 17:20 | 49.44597 | 4.05516 | 14906 ft | 291 kts | 184° |
| 2026-05-05 17:20 | 49.42586 | 4.05365 | 14592 ft | 290 kts | 184° |
| 2026-05-05 17:20 | 49.41904 | 4.05313 | 14486 ft | 290 kts | 184° |
| 2026-05-05 17:21 | 49.40829 | 4.05173 | 14306 ft | 289 kts | 189° |
| 2026-05-05 17:21 | 49.38999 | 4.03963 | 14000 ft | 290 kts | 216° |
| 2026-05-05 17:22 | 49.36841 | 3.98996 | 13769 ft | 286 kts | 253° |
| 2026-05-05 17:22 | 49.36200 | 3.96126 | 13533 ft | 284 kts | 241° |
| 2026-05-05 17:22 | 49.35220 | 3.93491 | 13279 ft | 284 kts | 239° |
| 2026-05-05 17:22 | 49.34312 | 3.90794 | 13030 ft | 286 kts | 243° |
| 2026-05-05 17:23 | 49.33465 | 3.88022 | 12779 ft | 287 kts | 243° |
| 2026-05-05 17:23 | 49.32561 | 3.85287 | 12522 ft | 288 kts | 240° |
| 2026-05-05 17:23 | 49.31613 | 3.82577 | 12271 ft | 288 kts | 240° |
| 2026-05-05 17:23 | 49.30698 | 3.79839 | 12014 ft | 289 kts | 242° |
| 2026-05-05 17:24 | 49.29809 | 3.77081 | 11771 ft | 289 kts | 242° |
| 2026-05-05 17:24 | 49.28902 | 3.74378 | 11517 ft | 289 kts | 240° |
| 2026-05-05 17:24 | 49.27974 | 3.71653 | 11263 ft | 289 kts | 241° |
| 2026-05-05 17:24 | 49.27054 | 3.68868 | 11010 ft | 289 kts | 243° |
| 2026-05-05 17:25 | 49.26512 | 3.65948 | 10973 ft | 284 kts | 259° |
| 2026-05-05 17:25 | 49.26323 | 3.63975 | 10973 ft | 280 kts | 258° |
| 2026-05-05 17:25 | 49.25715 | 3.60189 | 10980 ft | 274 kts | 252° |
| 2026-05-05 17:25 | 49.25266 | 3.57361 | 10968 ft | 273 kts | 256° |
| 2026-05-05 17:26 | 49.24904 | 3.54527 | 10985 ft | 270 kts | 256° |
| 2026-05-05 17:26 | 49.24512 | 3.51715 | 10988 ft | 270 kts | 256° |
| 2026-05-05 17:26 | 49.24095 | 3.48913 | 10990 ft | 271 kts | 255° |
| 2026-05-05 17:26 | 49.23688 | 3.46094 | 10991 ft | 271 kts | 256° |
| 2026-05-05 17:27 | 49.23314 | 3.43213 | 10980 ft | 281 kts | 256° |
| 2026-05-05 17:27 | 49.22861 | 3.40273 | 10984 ft | 286 kts | 254° |
| 2026-05-05 17:27 | 49.22398 | 3.37293 | 10975 ft | 289 kts | 255° |
| 2026-05-05 17:27 | 49.21985 | 3.34264 | 10976 ft | 292 kts | 257° |
| 2026-05-05 17:28 | 49.21566 | 3.31209 | 10978 ft | 294 kts | 256° |
| 2026-05-05 17:28 | 49.21107 | 3.28151 | 10973 ft | 296 kts | 255° |
| 2026-05-05 17:28 | 49.20646 | 3.25079 | 10972 ft | 297 kts | 256° |
| 2026-05-05 17:28 | 49.20206 | 3.21991 | 10975 ft | 298 kts | 256° |
| 2026-05-05 17:29 | 49.19760 | 3.18891 | 10978 ft | 298 kts | 256° |
| 2026-05-05 17:29 | 49.19304 | 3.15798 | 10981 ft | 298 kts | 255° |
| 2026-05-05 17:29 | 49.18846 | 3.12713 | 10979 ft | 297 kts | 256° |
| 2026-05-05 17:29 | 49.18398 | 3.09625 | 10985 ft | 298 kts | 256° |
| 2026-05-05 17:30 | 49.17939 | 3.06518 | 10987 ft | 301 kts | 256° |
| 2026-05-05 17:30 | 49.17478 | 3.03386 | 10985 ft | 303 kts | 256° |
| 2026-05-05 17:30 | 49.16998 | 3.00251 | 10987 ft | 304 kts | 254° |
| 2026-05-05 17:30 | 49.16414 | 2.97131 | 10986 ft | 306 kts | 252° |
| 2026-05-05 17:31 | 49.15803 | 2.94011 | 10992 ft | 307 kts | 252° |
| 2026-05-05 17:31 | 49.15184 | 2.90886 | 10992 ft | 308 kts | 252° |
| 2026-05-05 17:31 | 49.14558 | 2.87764 | 10987 ft | 307 kts | 252° |
| 2026-05-05 17:31 | 49.13929 | 2.84647 | 10990 ft | 307 kts | 252° |
| 2026-05-05 17:32 | 49.13316 | 2.81573 | 11000 ft | 307 kts | 251° |
| 2026-05-05 17:32 | 49.12689 | 2.78409 | 10992 ft | 309 kts | 252° |
| 2026-05-05 17:32 | 49.12062 | 2.75283 | 10988 ft | 307 kts | 252° |
| 2026-05-05 17:32 | 49.11441 | 2.72203 | 10990 ft | 305 kts | 252° |
| 2026-05-05 17:33 | 49.10815 | 2.69113 | 10988 ft | 305 kts | 251° |
| 2026-05-05 17:33 | 49.10195 | 2.66024 | 10991 ft | 304 kts | 252° |
| 2026-05-05 17:33 | 49.09576 | 2.62934 | 10956 ft | 307 kts | 253° |
| 2026-05-05 17:33 | 49.08913 | 2.59756 | 10470 ft | 319 kts | 252° |
| 2026-05-05 17:34 | 49.08214 | 2.56523 | 9996 ft | 322 kts | 252° |
| 2026-05-05 17:34 | 49.07499 | 2.53272 | 9495 ft | 323 kts | 252° |
| 2026-05-05 17:34 | 49.06771 | 2.50030 | 8964 ft | 323 kts | 252° |
| 2026-05-05 17:34 | 49.06048 | 2.46781 | 8439 ft | 324 kts | 252° |
| 2026-05-05 17:35 | 49.05312 | 2.43536 | 7937 ft | 323 kts | 251° |
| 2026-05-05 17:35 | 49.04604 | 2.40419 | 7532 ft | 292 kts | 252° |
| 2026-05-05 17:35 | 49.03945 | 2.37520 | 7046 ft | 281 kts | 252° |
| 2026-05-05 17:35 | 49.03319 | 2.34720 | 6545 ft | 274 kts | 252° |
| 2026-05-05 17:36 | 49.02673 | 2.32004 | 6055 ft | 274 kts | 248° |
| 2026-05-05 17:36 | 49.01870 | 2.29349 | 5529 ft | 277 kts | 247° |
| 2026-05-05 17:36 | 49.01327 | 2.27550 | 5192 ft | 277 kts | 246° |
| 2026-05-05 17:36 | 49.00656 | 2.24847 | 4692 ft | 276 kts | 251° |
| 2026-05-05 17:37 | 48.99898 | 2.22205 | 4176 ft | 269 kts | 246° |
| 2026-05-05 17:37 | 48.99133 | 2.19644 | 3646 ft | 262 kts | 248° |
| 2026-05-05 17:37 | 48.98398 | 2.17161 | 3149 ft | 253 kts | 246° |
| 2026-05-05 17:37 | 48.97757 | 2.14796 | 3009 ft | 227 kts | 257° |
| 2026-05-05 17:38 | 48.97201 | 2.12670 | 3007 ft | 212 kts | 249° |
| 2026-05-05 17:38 | 48.96595 | 2.10650 | 3002 ft | 207 kts | 249° |
| 2026-05-05 17:38 | 48.96030 | 2.08638 | 2999 ft | 209 kts | 250° |
| 2026-05-05 17:38 | 48.95146 | 2.06881 | 2990 ft | 216 kts | 213° |
| 2026-05-05 17:39 | 48.93715 | 2.06123 | 2988 ft | 221 kts | 183° |
| 2026-05-05 17:39 | 48.92270 | 2.06727 | 2992 ft | 217 kts | 142° |
| 2026-05-05 17:39 | 48.91294 | 2.08393 | 2994 ft | 211 kts | 117° |
| 2026-05-05 17:39 | 48.90553 | 2.10322 | 2999 ft | 211 kts | 115° |
| 2026-05-05 17:40 | 48.89823 | 2.12261 | 3012 ft | 211 kts | 115° |
| 2026-05-05 17:40 | 48.89104 | 2.14184 | 2993 ft | 203 kts | 102° |
| 2026-05-05 17:40 | 48.89270 | 2.16198 | 2991 ft | 192 kts | 63° |
| 2026-05-05 17:40 | 48.89854 | 2.18002 | 3000 ft | 191 kts | 62° |
| 2026-05-05 17:41 | 48.90357 | 2.19908 | 2997 ft | 196 kts | 65° |
| 2026-05-05 17:41 | 48.90887 | 2.21720 | 2991 ft | 175 kts | 61° |
| 2026-05-05 17:41 | 48.91462 | 2.23260 | 2846 ft | 165 kts | 61° |
| 2026-05-05 17:41 | 48.91779 | 2.24816 | 2648 ft | 144 kts | 71° |
| 2026-05-05 17:42 | 48.92112 | 2.26204 | 2459 ft | 130 kts | 60° |
| 2026-05-05 17:42 | 48.92438 | 2.27401 | 2287 ft | 121 kts | 64° |
| 2026-05-05 17:42 | 48.92748 | 2.28573 | 2122 ft | 118 kts | 59° |
| 2026-05-05 17:42 | 48.93113 | 2.29704 | 1963 ft | 121 kts | 66° |
| 2026-05-05 17:43 | 48.93373 | 2.30878 | 1801 ft | 116 kts | 64° |
| 2026-05-05 17:43 | 48.93691 | 2.32025 | 1646 ft | 118 kts | 61° |
| 2026-05-05 17:43 | 48.93994 | 2.33189 | 1489 ft | 119 kts | 64° |
| 2026-05-05 17:43 | 48.94305 | 2.34357 | 1324 ft | 120 kts | 64° |
| 2026-05-05 17:44 | 48.94629 | 2.35517 | 1150 ft | 118 kts | 59° |
| 2026-05-05 17:44 | 48.94958 | 2.36684 | 982 ft | 119 kts | 65° |
| 2026-05-05 17:44 | 48.95248 | 2.37849 | 819 ft | 121 kts | 66° |
| 2026-05-05 17:44 | 48.95547 | 2.39051 | 669 ft | 122 kts | 63° |
| 2026-05-05 17:45 | 48.95877 | 2.40288 | 511 ft | 124 kts | 63° |
| 2026-05-05 17:45 | 48.96221 | 2.41393 | 368 ft | 119 kts | 60° |
| 2026-05-05 17:45 | 48.96524 | 2.42550 | 212 ft | 107 kts | 64° |
| 2026-05-05 17:45 | 48.96758 | 2.43428 | 175 ft | 73 kts | 68° |
| 2026-05-05 17:46 | 48.96871 | 2.43840 | 180 ft | 21 kts | 67° |
| 2026-05-05 17:46 | 48.96925 | 2.44044 | 198 ft | 18 kts | 69° |
| 2026-05-05 17:46 | 48.96948 | 2.44205 | 190 ft | 15 kts | 98° |
| 2026-05-05 17:46 | 48.96902 | 2.44344 | 190 ft | 15 kts | 134° |
| 2026-05-05 17:47 | 48.96803 | 2.44418 | 195 ft | 17 kts | 164° |
| 2026-05-05 17:47 | 48.96675 | 2.44476 | 178 ft | 18 kts | 163° |
| 2026-05-05 17:47 | 48.96552 | 2.44530 | 176 ft | 19 kts | 169° |
| 2026-05-05 17:47 | 48.96429 | 2.44548 | 171 ft | 18 kts | 176° |
| 2026-05-05 17:48 | 48.96327 | 2.44500 | 167 ft | 15 kts | 204° |
| 2026-05-05 17:48 | 48.96222 | 2.44427 | 165 ft | 18 kts | 205° |
| 2026-05-05 17:48 | 48.96091 | 2.44334 | 158 ft | 22 kts | 204° |
| 2026-05-05 17:48 | 48.95953 | 2.44238 | 155 ft | 17 kts | 205° |
| 2026-05-05 17:49 | 48.95885 | 2.44251 | 152 ft | 7 kts | 144° |
| 2026-05-05 17:49 | 48.95847 | 2.44277 | 152 ft | 7 kts | 123° |
| 2026-05-05 17:49 | 48.95852 | 2.44292 | 152 ft | 0 kts | 25° |